createdAt,value
2022-10-09T00:04:25.296Z,5.67
2022-10-09T00:09:26.898Z,5.47
2022-10-09T00:14:28.496Z,5.58
2022-10-09T00:19:30.091Z,5.53
2022-10-09T00:24:31.715Z,5.46
2022-10-09T00:29:33.310Z,5.50
2022-10-09T00:34:34.901Z,5.46
2022-10-09T00:39:36.789Z,5.30
2022-10-09T00:44:47.517Z,5.23
2022-10-09T00:49:51.572Z,5.25
2022-10-09T00:54:54.961Z,5.23
2022-10-09T00:59:56.574Z,5.20
2022-10-09T01:04:58.245Z,5.19
2022-10-09T01:10:11.907Z,5.09
2022-10-09T01:15:19.493Z,5.11
2022-10-09T01:20:27.974Z,5.06
2022-10-09T01:25:36.561Z,5.08
2022-10-09T01:30:38.752Z,4.88
2022-10-09T01:35:41.805Z,4.86
2022-10-09T01:40:43.908Z,4.69
2022-10-09T01:45:47.684Z,4.67
2022-10-09T01:51:02.409Z,4.72
2022-10-09T01:56:17.300Z,4.53
2022-10-09T02:01:32.108Z,4.55
2022-10-09T02:06:35.969Z,4.65
2022-10-09T02:11:40.551Z,4.89
2022-10-09T02:16:57.289Z,4.83
2022-10-09T02:22:05.055Z,4.96
2022-10-09T02:27:07.135Z,5.07
2022-10-09T02:32:09.546Z,5.27
2022-10-09T02:37:11.199Z,5.25
2022-10-09T02:42:12.871Z,5.39
2022-10-09T02:47:14.460Z,5.24
2022-10-09T02:52:16.050Z,5.19
2022-10-09T02:57:17.659Z,5.36
2022-10-09T03:02:19.395Z,5.52
2022-10-09T03:07:21.055Z,5.36
2022-10-09T03:12:22.743Z,5.38
2022-10-09T03:17:24.335Z,5.52
2022-10-09T03:22:25.928Z,5.64
2022-10-09T03:27:27.518Z,5.82
2022-10-09T03:32:29.330Z,5.57
2022-10-09T03:37:31.787Z,5.73
2022-10-09T03:42:33.425Z,5.88
2022-10-09T03:47:34.997Z,5.80
2022-10-09T03:52:36.582Z,5.57
2022-10-09T03:57:38.705Z,5.68
2022-10-09T04:02:40.313Z,5.50
2022-10-09T04:07:41.973Z,5.47
2022-10-09T04:12:43.710Z,5.50
2022-10-09T04:17:45.335Z,5.61
2022-10-09T04:22:47.465Z,5.58
2022-10-09T04:27:49.335Z,5.36
2022-10-09T04:32:51.313Z,5.52
2022-10-09T04:37:53.225Z,5.53
2022-10-09T04:42:54.938Z,5.43
2022-10-09T04:47:56.515Z,5.58
2022-10-09T04:52:58.240Z,5.66
2022-10-09T04:57:59.901Z,5.52
2022-10-09T05:03:01.551Z,5.42
2022-10-09T05:08:03.505Z,5.32
2022-10-09T05:13:05.624Z,5.51
2022-10-09T05:18:07.202Z,5.55
2022-10-09T05:23:08.951Z,5.41
2022-10-09T05:28:10.700Z,5.42
2022-10-09T05:33:12.365Z,5.41
2022-10-09T05:38:13.936Z,5.49
2022-10-09T05:43:15.528Z,5.66
2022-10-09T05:48:17.233Z,5.55
2022-10-09T05:53:18.845Z,5.34
2022-10-09T05:58:20.439Z,5.17
2022-10-09T06:03:22.005Z,4.98
2022-10-09T06:08:23.597Z,4.97
2022-10-09T06:13:25.174Z,4.83
2022-10-09T06:18:28.051Z,5.01
2022-10-09T06:23:31.591Z,5.26
2022-10-09T06:28:35.785Z,5.34
2022-10-09T06:33:39.633Z,5.51
2022-10-09T06:38:42.345Z,5.49
2022-10-09T06:43:51.372Z,5.23
2022-10-09T06:48:53.169Z,5.33
2022-10-09T06:53:56.557Z,5.07
2022-10-09T06:59:03.158Z,5.23
2022-10-09T07:04:07.376Z,5.40
2022-10-09T07:09:11.448Z,5.57
2022-10-09T07:14:15.881Z,5.79
2022-10-09T07:19:18.598Z,5.93
2022-10-09T07:24:20.781Z,5.84
2022-10-09T07:29:22.467Z,5.90
2022-10-09T07:34:24.136Z,6.18
2022-10-09T07:39:27.019Z,6.05
2022-10-09T07:44:28.949Z,5.81
2022-10-09T07:49:30.696Z,5.94
2022-10-09T07:54:32.694Z,6.27
2022-10-09T07:59:34.389Z,6.29
2022-10-09T08:04:37.498Z,6.42
2022-10-09T08:09:39.800Z,6.83
2022-10-09T08:14:41.417Z,6.86
2022-10-09T08:19:43.024Z,6.77
2022-10-09T08:24:44.648Z,6.91
2022-10-09T08:29:46.225Z,6.82
2022-10-09T08:34:47.883Z,7.13
2022-10-09T08:39:49.601Z,7.29
2022-10-09T08:44:51.436Z,7.34
2022-10-09T08:49:56.582Z,7.36
2022-10-09T08:55:04.032Z,7.49
2022-10-09T09:00:17.439Z,7.64
2022-10-09T09:05:47.095Z,7.75
2022-10-09T09:10:54.695Z,7.95
2022-10-09T09:16:15.668Z,7.85
2022-10-09T09:21:47.448Z,7.67
2022-10-09T09:26:51.241Z,7.64
2022-10-09T09:32:01.125Z,8.18
2022-10-09T09:37:03.414Z,8.67
2022-10-09T09:42:14.847Z,8.90
2022-10-09T09:47:25.571Z,9.31
2022-10-09T09:52:34.602Z,9.35
2022-10-09T09:57:45.574Z,9.40
2022-10-09T10:02:47.422Z,9.30
2022-10-09T10:07:51.478Z,9.69
2022-10-09T10:12:53.461Z,10.21
2022-10-09T10:18:00.993Z,10.38
2022-10-09T10:23:02.622Z,10.55
2022-10-09T10:28:15.813Z,10.80
2022-10-09T10:33:22.937Z,11.10
2022-10-09T10:38:42.117Z,11.20
2022-10-09T10:43:48.366Z,11.20
2022-10-09T10:48:51.691Z,11.26
2022-10-09T10:54:24.585Z,11.37
2022-10-09T10:59:33.845Z,11.78
2022-10-09T11:04:53.390Z,11.85
2022-10-09T11:09:58.164Z,12.08
2022-10-09T11:15:37.781Z,12.31
2022-10-09T11:20:57.606Z,12.60
2022-10-09T11:26:07.741Z,12.79
2022-10-09T11:31:29.893Z,12.79
2022-10-09T11:36:37.871Z,13.09
2022-10-09T11:41:40.915Z,13.36
2022-10-09T11:47:02.161Z,13.48
2022-10-09T11:52:21.514Z,13.77
2022-10-09T11:57:28.653Z,14.07
2022-10-09T12:02:31.310Z,14.08
2022-10-09T12:07:36.371Z,14.30
2022-10-09T12:12:38.971Z,14.77
2022-10-09T12:17:49.854Z,14.92
2022-10-09T12:23:25.115Z,15.00
2022-10-09T12:28:48.530Z,15.14
2022-10-09T12:34:12.965Z,15.28
2022-10-09T12:39:24.684Z,15.47
2022-10-09T12:44:34.169Z,15.65
2022-10-09T12:49:36.178Z,15.71
2022-10-09T12:54:43.742Z,15.84
2022-10-09T12:59:46.792Z,15.82
2022-10-09T13:04:57.343Z,15.86
2022-10-09T13:10:02.080Z,15.96
2022-10-09T13:15:06.786Z,16.02
2022-10-09T13:20:17.187Z,15.98
2022-10-09T13:25:18.623Z,15.69
2022-10-09T13:30:20.272Z,15.94
2022-10-09T13:35:22.064Z,16.17
2022-10-09T13:40:23.911Z,16.13
2022-10-09T13:45:25.770Z,16.37
2022-10-09T13:50:27.465Z,16.41
2022-10-09T13:55:29.095Z,16.48
2022-10-09T14:00:30.778Z,16.48
2022-10-09T14:05:32.492Z,16.30
2022-10-09T14:10:34.270Z,16.40
2022-10-09T14:15:39.235Z,16.36
2022-10-09T14:20:40.841Z,16.26
2022-10-09T14:25:42.448Z,16.33
2022-10-09T14:30:44.377Z,16.31
2022-10-09T14:35:46.169Z,16.33
2022-10-09T14:40:47.774Z,16.21
2022-10-09T14:45:49.395Z,16.28
2022-10-09T14:50:51.009Z,16.17
2022-10-09T14:55:52.667Z,16.17
2022-10-09T15:00:54.258Z,16.11
2022-10-09T15:06:02.660Z,16.00
2022-10-09T15:11:04.749Z,16.01
2022-10-09T15:16:15.764Z,16.00
2022-10-09T15:21:20.893Z,15.88
2022-10-09T15:26:23.731Z,15.82
2022-10-09T15:31:30.312Z,15.81
2022-10-09T15:36:36.297Z,15.74
2022-10-09T15:41:40.081Z,15.77
2022-10-09T15:46:41.706Z,15.64
2022-10-09T15:51:43.540Z,15.51
2022-10-09T15:56:45.397Z,15.43
2022-10-09T16:01:48.473Z,15.30
2022-10-09T16:06:50.101Z,15.07
2022-10-09T16:11:51.864Z,14.76
2022-10-09T16:16:53.719Z,14.52
2022-10-09T16:21:55.344Z,14.22
2022-10-09T16:26:56.903Z,13.86
2022-10-09T16:31:58.619Z,13.52
2022-10-09T16:37:02.239Z,13.26
2022-10-09T16:42:04.686Z,13.04
2022-10-09T16:47:06.312Z,12.87
2022-10-09T16:52:07.908Z,12.69
2022-10-09T16:57:09.616Z,12.39
2022-10-09T17:02:12.559Z,12.08
2022-10-09T17:07:14.257Z,11.84
2022-10-09T17:12:16.037Z,11.68
2022-10-09T17:17:17.743Z,11.49
2022-10-09T17:22:19.388Z,11.29
2022-10-09T17:27:21.002Z,11.14
2022-10-09T17:32:22.760Z,10.97
2022-10-09T17:37:24.408Z,10.88
2022-10-09T17:42:26.007Z,10.73
2022-10-09T17:47:27.786Z,10.60
2022-10-09T17:52:29.435Z,10.47
2022-10-09T17:57:31.084Z,10.28
2022-10-09T18:02:32.711Z,10.06
2022-10-09T18:07:34.518Z,9.98
2022-10-09T18:12:36.152Z,9.95
2022-10-09T18:17:37.833Z,9.87
2022-10-09T18:22:39.453Z,9.76
2022-10-09T18:27:41.092Z,9.66
2022-10-09T18:32:45.054Z,9.61
2022-10-09T18:37:47.329Z,9.45
2022-10-09T18:42:49.807Z,9.33
2022-10-09T18:47:51.784Z,9.23
2022-10-09T18:52:54.301Z,9.12
2022-10-09T18:57:56.159Z,8.99
2022-10-09T19:02:57.869Z,8.72
2022-10-09T19:07:59.481Z,8.65
2022-10-09T19:13:01.083Z,8.66
2022-10-09T19:18:02.909Z,8.51
2022-10-09T19:23:04.650Z,8.44
2022-10-09T19:28:06.278Z,8.40
2022-10-09T19:33:07.951Z,8.39
2022-10-09T19:38:09.552Z,8.31
2022-10-09T19:43:12.561Z,8.25
2022-10-09T19:48:17.165Z,8.17
2022-10-09T19:53:18.747Z,8.07
2022-10-09T19:58:20.382Z,7.95
2022-10-09T20:03:21.968Z,7.91
2022-10-09T20:08:23.555Z,7.79
2022-10-09T20:13:25.756Z,7.69
2022-10-09T20:18:27.752Z,7.52
2022-10-09T20:23:30.045Z,7.45
2022-10-09T20:28:33.566Z,7.43
2022-10-09T20:33:37.144Z,7.31
2022-10-09T20:38:39.229Z,7.13
2022-10-09T20:43:41.701Z,7.08
2022-10-09T20:48:43.714Z,7.09
2022-10-09T20:53:46.426Z,6.98
2022-10-09T20:58:48.532Z,7.05
2022-10-09T21:03:50.454Z,7.12
2022-10-09T21:08:53.451Z,7.04
2022-10-09T21:13:55.886Z,7.08
2022-10-09T21:19:00.387Z,6.95
2022-10-09T21:24:02.538Z,6.86
2022-10-09T21:29:05.536Z,6.75
2022-10-09T21:34:07.185Z,6.61
2022-10-09T21:39:09.730Z,6.38
2022-10-09T21:44:12.517Z,6.41
2022-10-09T21:49:21.590Z,6.47
2022-10-09T21:54:23.501Z,6.50
2022-10-09T21:59:25.158Z,6.52
2022-10-09T22:04:26.785Z,6.52
2022-10-09T22:09:28.353Z,6.47
2022-10-09T22:14:31.399Z,6.33
2022-10-09T22:19:33.153Z,6.21
2022-10-09T22:24:34.710Z,6.13
2022-10-09T22:29:38.232Z,6.25
2022-10-09T22:34:40.046Z,6.13
2022-10-09T22:39:41.640Z,5.97
2022-10-09T22:44:43.222Z,6.00
2022-10-09T22:49:44.878Z,6.02
2022-10-09T22:54:46.541Z,6.05
2022-10-09T22:59:48.183Z,5.93
2022-10-09T23:04:49.815Z,5.76
2022-10-09T23:09:51.474Z,5.75
2022-10-09T23:14:53.346Z,5.74
2022-10-09T23:19:54.936Z,5.65
2022-10-09T23:24:56.534Z,5.57
2022-10-09T23:29:58.173Z,5.57
2022-10-09T23:34:59.759Z,5.62
2022-10-09T23:40:01.368Z,5.62
2022-10-09T23:45:03.290Z,5.60
2022-10-09T23:50:06.473Z,5.57
2022-10-09T23:55:08.654Z,5.45
